sensor_id;sensor_type;location;lat;lon;timestamp;P1;durP1;ratioP1;P2;durP2;ratioP2
49296;SDS011;35163;48.878;18.040;2022-09-16T00:01:50;12.20;;;6.35;;
49296;SDS011;35163;48.878;18.040;2022-09-16T00:04:16;15.57;;;6.47;;
49296;SDS011;35163;48.878;18.040;2022-09-16T00:06:43;14.50;;;6.35;;
49296;SDS011;35163;48.878;18.040;2022-09-16T00:09:10;11.73;;;5.57;;
49296;SDS011;35163;48.878;18.040;2022-09-16T00:11:36;11.63;;;6.00;;
49296;SDS011;35163;48.878;18.040;2022-09-16T00:14:03;16.05;;;5.53;;
49296;SDS011;35163;48.878;18.040;2022-09-16T00:16:30;10.93;;;6.10;;
49296;SDS011;35163;48.878;18.040;2022-09-16T00:18:57;13.80;;;6.47;;
49296;SDS011;35163;48.878;18.040;2022-09-16T00:21:26;16.80;;;6.85;;
49296;SDS011;35163;48.878;18.040;2022-09-16T00:23:54;13.32;;;6.53;;
49296;SDS011;35163;48.878;18.040;2022-09-16T00:26:21;13.55;;;6.05;;
49296;SDS011;35163;48.878;18.040;2022-09-16T00:28:48;13.20;;;5.72;;
49296;SDS011;35163;48.878;18.040;2022-09-16T00:31:16;11.60;;;5.65;;
49296;SDS011;35163;48.878;18.040;2022-09-16T00:33:43;10.88;;;6.25;;
49296;SDS011;35163;48.878;18.040;2022-09-16T00:36:11;13.13;;;6.03;;
49296;SDS011;35163;48.878;18.040;2022-09-16T00:38:40;12.32;;;6.15;;
49296;SDS011;35163;48.878;18.040;2022-09-16T00:41:07;14.63;;;6.72;;
49296;SDS011;35163;48.878;18.040;2022-09-16T00:43:50;16.13;;;6.82;;
49296;SDS011;35163;48.878;18.040;2022-09-16T00:46:46;12.98;;;5.88;;
49296;SDS011;35163;48.878;18.040;2022-09-16T00:49:20;13.13;;;6.50;;
49296;SDS011;35163;48.878;18.040;2022-09-16T00:51:51;14.43;;;6.40;;
49296;SDS011;35163;48.878;18.040;2022-09-16T00:54:22;11.85;;;6.43;;
49296;SDS011;35163;48.878;18.040;2022-09-16T00:56:50;12.30;;;6.45;;
49296;SDS011;35163;48.878;18.040;2022-09-16T00:59:20;13.43;;;6.57;;
49296;SDS011;35163;48.878;18.040;2022-09-16T01:01:54;13.85;;;6.55;;
49296;SDS011;35163;48.878;18.040;2022-09-16T01:04:25;14.13;;;6.53;;
49296;SDS011;35163;48.878;18.040;2022-09-16T01:06:54;12.05;;;6.10;;
49296;SDS011;35163;48.878;18.040;2022-09-16T01:09:22;13.35;;;6.50;;
49296;SDS011;35163;48.878;18.040;2022-09-16T01:11:51;12.95;;;7.55;;
49296;SDS011;35163;48.878;18.040;2022-09-16T01:14:17;14.82;;;6.97;;
49296;SDS011;35163;48.878;18.040;2022-09-16T01:20:05;15.82;;;7.15;;
49296;SDS011;35163;48.878;18.040;2022-09-16T01:30:42;14.40;;;7.65;;
49296;SDS011;35163;48.878;18.040;2022-09-16T01:41:08;12.75;;;7.25;;
49296;SDS011;35163;48.878;18.040;2022-09-16T01:49:03;13.80;;;7.10;;
49296;SDS011;35163;48.878;18.040;2022-09-16T01:51:56;14.57;;;6.97;;
49296;SDS011;35163;48.878;18.040;2022-09-16T01:54:34;13.20;;;7.25;;
49296;SDS011;35163;48.878;18.040;2022-09-16T01:59:43;17.55;;;7.80;;
49296;SDS011;35163;48.878;18.040;2022-09-16T02:04:50;14.57;;;6.90;;
49296;SDS011;35163;48.878;18.040;2022-09-16T02:07:21;13.38;;;7.20;;
49296;SDS011;35163;48.878;18.040;2022-09-16T02:09:56;17.75;;;8.40;;
49296;SDS011;35163;48.878;18.040;2022-09-16T02:12:28;23.38;;;8.07;;
49296;SDS011;35163;48.878;18.040;2022-09-16T02:15:01;16.15;;;7.32;;
49296;SDS011;35163;48.878;18.040;2022-09-16T02:17:31;13.35;;;7.28;;
49296;SDS011;35163;48.878;18.040;2022-09-16T02:20:04;14.73;;;7.80;;
49296;SDS011;35163;48.878;18.040;2022-09-16T02:22:36;17.00;;;7.65;;
49296;SDS011;35163;48.878;18.040;2022-09-16T02:25:07;16.35;;;7.93;;
49296;SDS011;35163;48.878;18.040;2022-09-16T02:27:36;15.80;;;8.65;;
49296;SDS011;35163;48.878;18.040;2022-09-16T02:30:07;17.95;;;8.25;;
49296;SDS011;35163;48.878;18.040;2022-09-16T02:32:37;19.20;;;8.65;;
49296;SDS011;35163;48.878;18.040;2022-09-16T02:35:08;13.48;;;7.78;;
49296;SDS011;35163;48.878;18.040;2022-09-16T02:37:52;13.38;;;7.70;;
49296;SDS011;35163;48.878;18.040;2022-09-16T02:40:26;16.85;;;8.90;;
49296;SDS011;35163;48.878;18.040;2022-09-16T02:42:59;18.30;;;7.82;;
49296;SDS011;35163;48.878;18.040;2022-09-16T02:45:35;13.05;;;7.53;;
49296;SDS011;35163;48.878;18.040;2022-09-16T02:48:15;16.63;;;9.70;;
49296;SDS011;35163;48.878;18.040;2022-09-16T02:51:27;16.35;;;7.88;;
49296;SDS011;35163;48.878;18.040;2022-09-16T02:56:45;15.85;;;8.70;;
49296;SDS011;35163;48.878;18.040;2022-09-16T02:59:11;15.30;;;8.57;;
49296;SDS011;35163;48.878;18.040;2022-09-16T03:01:42;18.27;;;8.73;;
49296;SDS011;35163;48.878;18.040;2022-09-16T03:04:11;18.77;;;9.00;;
49296;SDS011;35163;48.878;18.040;2022-09-16T03:06:39;13.20;;;7.63;;
49296;SDS011;35163;48.878;18.040;2022-09-16T03:09:07;15.00;;;8.18;;
49296;SDS011;35163;48.878;18.040;2022-09-16T03:27:49;20.35;;;9.18;;
49296;SDS011;35163;48.878;18.040;2022-09-16T03:30:20;16.73;;;8.70;;
49296;SDS011;35163;48.878;18.040;2022-09-16T03:32:57;19.50;;;8.68;;
49296;SDS011;35163;48.878;18.040;2022-09-16T03:35:33;17.00;;;9.15;;
49296;SDS011;35163;48.878;18.040;2022-09-16T03:38:07;18.13;;;9.30;;
49296;SDS011;35163;48.878;18.040;2022-09-16T03:40:37;15.68;;;8.82;;
49296;SDS011;35163;48.878;18.040;2022-09-16T03:43:13;16.00;;;9.25;;
49296;SDS011;35163;48.878;18.040;2022-09-16T03:45:41;15.23;;;8.80;;
49296;SDS011;35163;48.878;18.040;2022-09-16T03:48:09;16.33;;;8.70;;
49296;SDS011;35163;48.878;18.040;2022-09-16T03:50:37;15.05;;;8.20;;
49296;SDS011;35163;48.878;18.040;2022-09-16T03:53:04;20.55;;;9.10;;
49296;SDS011;35163;48.878;18.040;2022-09-16T03:55:30;24.70;;;9.15;;
49296;SDS011;35163;48.878;18.040;2022-09-16T03:57:57;15.93;;;8.23;;
49296;SDS011;35163;48.878;18.040;2022-09-16T04:00:23;18.77;;;8.15;;
49296;SDS011;35163;48.878;18.040;2022-09-16T04:02:50;22.92;;;8.23;;
49296;SDS011;35163;48.878;18.040;2022-09-16T04:05:17;22.35;;;8.63;;
49296;SDS011;35163;48.878;18.040;2022-09-16T04:07:43;16.60;;;7.95;;
49296;SDS011;35163;48.878;18.040;2022-09-16T04:10:10;16.98;;;7.95;;
49296;SDS011;35163;48.878;18.040;2022-09-16T04:12:37;17.17;;;8.27;;
49296;SDS011;35163;48.878;18.040;2022-09-16T04:15:04;16.67;;;8.05;;
49296;SDS011;35163;48.878;18.040;2022-09-16T04:17:31;14.32;;;7.97;;
49296;SDS011;35163;48.878;18.040;2022-09-16T04:19:58;16.55;;;8.63;;
49296;SDS011;35163;48.878;18.040;2022-09-16T04:22:28;17.00;;;8.35;;
49296;SDS011;35163;48.878;18.040;2022-09-16T04:24:56;26.20;;;9.27;;
49296;SDS011;35163;48.878;18.040;2022-09-16T04:27:23;18.98;;;8.50;;
49296;SDS011;35163;48.878;18.040;2022-09-16T04:29:50;13.52;;;7.32;;
49296;SDS011;35163;48.878;18.040;2022-09-16T04:32:16;14.77;;;7.45;;
49296;SDS011;35163;48.878;18.040;2022-09-16T04:34:43;23.17;;;9.45;;
49296;SDS011;35163;48.878;18.040;2022-09-16T04:37:10;20.42;;;9.98;;
49296;SDS011;35163;48.878;18.040;2022-09-16T04:39:37;16.73;;;8.45;;
49296;SDS011;35163;48.878;18.040;2022-09-16T04:42:03;15.98;;;8.95;;
49296;SDS011;35163;48.878;18.040;2022-09-16T04:44:31;14.88;;;8.35;;
49296;SDS011;35163;48.878;18.040;2022-09-16T04:46:57;16.33;;;8.55;;
49296;SDS011;35163;48.878;18.040;2022-09-16T04:49:24;15.77;;;8.55;;
49296;SDS011;35163;48.878;18.040;2022-09-16T04:51:50;15.13;;;8.63;;
49296;SDS011;35163;48.878;18.040;2022-09-16T04:54:17;16.23;;;8.85;;
49296;SDS011;35163;48.878;18.040;2022-09-16T04:56:44;24.58;;;10.45;;
49296;SDS011;35163;48.878;18.040;2022-09-16T04:59:10;19.60;;;10.68;;
49296;SDS011;35163;48.878;18.040;2022-09-16T05:01:38;19.25;;;10.20;;
49296;SDS011;35163;48.878;18.040;2022-09-16T05:04:06;17.45;;;9.93;;
49296;SDS011;35163;48.878;18.040;2022-09-16T05:06:34;20.83;;;8.93;;
49296;SDS011;35163;48.878;18.040;2022-09-16T05:09:02;16.55;;;8.60;;
49296;SDS011;35163;48.878;18.040;2022-09-16T05:11:30;20.13;;;8.93;;
49296;SDS011;35163;48.878;18.040;2022-09-16T05:13:59;21.25;;;9.32;;
49296;SDS011;35163;48.878;18.040;2022-09-16T05:16:27;18.23;;;9.45;;
49296;SDS011;35163;48.878;18.040;2022-09-16T05:18:55;23.20;;;9.13;;
49296;SDS011;35163;48.878;18.040;2022-09-16T05:21:24;19.65;;;9.27;;
49296;SDS011;35163;48.878;18.040;2022-09-16T05:23:52;18.27;;;9.23;;
49296;SDS011;35163;48.878;18.040;2022-09-16T05:26:20;18.60;;;9.65;;
49296;SDS011;35163;48.878;18.040;2022-09-16T05:28:49;16.92;;;8.65;;
49296;SDS011;35163;48.878;18.040;2022-09-16T05:31:17;16.27;;;9.23;;
49296;SDS011;35163;48.878;18.040;2022-09-16T05:33:45;18.83;;;9.20;;
49296;SDS011;35163;48.878;18.040;2022-09-16T05:36:18;16.53;;;8.97;;
49296;SDS011;35163;48.878;18.040;2022-09-16T05:38:44;17.10;;;9.35;;
49296;SDS011;35163;48.878;18.040;2022-09-16T05:41:31;15.10;;;8.00;;
49296;SDS011;35163;48.878;18.040;2022-09-16T05:43:58;17.73;;;8.93;;
49296;SDS011;35163;48.878;18.040;2022-09-16T05:46:26;23.27;;;8.93;;
49296;SDS011;35163;48.878;18.040;2022-09-16T05:48:53;14.98;;;8.15;;
49296;SDS011;35163;48.878;18.040;2022-09-16T05:51:21;17.40;;;7.95;;
49296;SDS011;35163;48.878;18.040;2022-09-16T05:53:49;14.90;;;7.78;;
49296;SDS011;35163;48.878;18.040;2022-09-16T05:56:18;12.60;;;7.13;;
49296;SDS011;35163;48.878;18.040;2022-09-16T05:58:54;16.30;;;7.82;;
49296;SDS011;35163;48.878;18.040;2022-09-16T06:01:23;10.93;;;6.03;;
49296;SDS011;35163;48.878;18.040;2022-09-16T06:04:02;14.77;;;6.50;;
49296;SDS011;35163;48.878;18.040;2022-09-16T06:06:32;16.30;;;7.50;;
49296;SDS011;35163;48.878;18.040;2022-09-16T06:09:03;14.02;;;7.45;;
49296;SDS011;35163;48.878;18.040;2022-09-16T06:11:37;15.05;;;7.15;;
49296;SDS011;35163;48.878;18.040;2022-09-16T06:14:05;12.60;;;6.38;;
49296;SDS011;35163;48.878;18.040;2022-09-16T06:16:33;15.55;;;5.40;;
49296;SDS011;35163;48.878;18.040;2022-09-16T06:19:01;15.85;;;5.80;;
49296;SDS011;35163;48.878;18.040;2022-09-16T06:21:29;12.63;;;5.82;;
49296;SDS011;35163;48.878;18.040;2022-09-16T06:23:56;13.10;;;6.20;;
49296;SDS011;35163;48.878;18.040;2022-09-16T06:26:24;14.65;;;5.70;;
49296;SDS011;35163;48.878;18.040;2022-09-16T06:28:51;10.02;;;4.82;;
49296;SDS011;35163;48.878;18.040;2022-09-16T06:31:20;13.57;;;5.60;;
49296;SDS011;35163;48.878;18.040;2022-09-16T06:33:51;13.15;;;5.60;;
49296;SDS011;35163;48.878;18.040;2022-09-16T06:36:20;17.80;;;6.63;;
49296;SDS011;35163;48.878;18.040;2022-09-16T06:38:48;10.75;;;4.38;;
49296;SDS011;35163;48.878;18.040;2022-09-16T06:41:17;10.32;;;4.25;;
49296;SDS011;35163;48.878;18.040;2022-09-16T06:43:45;9.73;;;4.28;;
49296;SDS011;35163;48.878;18.040;2022-09-16T06:46:12;10.32;;;4.28;;
49296;SDS011;35163;48.878;18.040;2022-09-16T06:48:42;7.15;;;3.13;;
49296;SDS011;35163;48.878;18.040;2022-09-16T06:51:16;7.57;;;3.03;;
49296;SDS011;35163;48.878;18.040;2022-09-16T06:53:44;5.78;;;2.63;;
49296;SDS011;35163;48.878;18.040;2022-09-16T06:56:12;7.85;;;2.80;;
49296;SDS011;35163;48.878;18.040;2022-09-16T06:58:41;4.97;;;2.45;;
49296;SDS011;35163;48.878;18.040;2022-09-16T07:01:10;10.13;;;3.40;;
49296;SDS011;35163;48.878;18.040;2022-09-16T07:03:42;7.40;;;2.97;;
49296;SDS011;35163;48.878;18.040;2022-09-16T07:06:12;9.70;;;3.05;;
49296;SDS011;35163;48.878;18.040;2022-09-16T07:08:39;7.30;;;2.63;;
49296;SDS011;35163;48.878;18.040;2022-09-16T07:11:09;9.35;;;2.60;;
49296;SDS011;35163;48.878;18.040;2022-09-16T07:13:41;9.40;;;2.63;;
49296;SDS011;35163;48.878;18.040;2022-09-16T07:16:10;15.98;;;3.17;;
49296;SDS011;35163;48.878;18.040;2022-09-16T07:18:40;7.63;;;2.63;;
49296;SDS011;35163;48.878;18.040;2022-09-16T07:21:08;6.07;;;2.03;;
49296;SDS011;35163;48.878;18.040;2022-09-16T07:23:39;8.75;;;2.65;;
49296;SDS011;35163;48.878;18.040;2022-09-16T07:26:08;6.43;;;2.60;;
49296;SDS011;35163;48.878;18.040;2022-09-16T07:28:37;11.40;;;2.75;;
49296;SDS011;35163;48.878;18.040;2022-09-16T07:31:05;8.52;;;2.70;;
49296;SDS011;35163;48.878;18.040;2022-09-16T07:33:37;5.15;;;2.42;;
49296;SDS011;35163;48.878;18.040;2022-09-16T07:36:05;11.13;;;2.55;;
49296;SDS011;35163;48.878;18.040;2022-09-16T07:38:34;11.40;;;2.40;;
49296;SDS011;35163;48.878;18.040;2022-09-16T07:41:08;7.13;;;2.72;;
49296;SDS011;35163;48.878;18.040;2022-09-16T07:43:37;8.90;;;2.80;;
49296;SDS011;35163;48.878;18.040;2022-09-16T07:46:06;13.00;;;3.22;;
49296;SDS011;35163;48.878;18.040;2022-09-16T07:48:33;8.88;;;2.72;;
49296;SDS011;35163;48.878;18.040;2022-09-16T07:51:04;7.47;;;2.83;;
49296;SDS011;35163;48.878;18.040;2022-09-16T07:53:31;5.18;;;2.35;;
49296;SDS011;35163;48.878;18.040;2022-09-16T07:56:09;7.82;;;2.42;;
49296;SDS011;35163;48.878;18.040;2022-09-16T07:58:38;5.25;;;2.35;;
49296;SDS011;35163;48.878;18.040;2022-09-16T08:01:06;11.45;;;2.90;;
49296;SDS011;35163;48.878;18.040;2022-09-16T08:03:34;8.48;;;2.13;;
49296;SDS011;35163;48.878;18.040;2022-09-16T08:06:02;7.75;;;1.90;;
49296;SDS011;35163;48.878;18.040;2022-09-16T08:08:31;5.60;;;1.95;;
49296;SDS011;35163;48.878;18.040;2022-09-16T08:11:00;11.35;;;2.35;;
49296;SDS011;35163;48.878;18.040;2022-09-16T08:13:28;7.13;;;1.90;;
49296;SDS011;35163;48.878;18.040;2022-09-16T08:16:00;8.63;;;2.50;;
49296;SDS011;35163;48.878;18.040;2022-09-16T08:18:28;5.00;;;1.77;;
49296;SDS011;35163;48.878;18.040;2022-09-16T08:20:55;5.95;;;2.15;;
49296;SDS011;35163;48.878;18.040;2022-09-16T08:23:22;5.63;;;2.17;;
49296;SDS011;35163;48.878;18.040;2022-09-16T08:25:56;5.63;;;2.03;;
49296;SDS011;35163;48.878;18.040;2022-09-16T08:28:24;6.72;;;2.58;;
49296;SDS011;35163;48.878;18.040;2022-09-16T08:30:51;5.32;;;1.77;;
49296;SDS011;35163;48.878;18.040;2022-09-16T08:33:18;6.05;;;2.00;;
49296;SDS011;35163;48.878;18.040;2022-09-16T08:36:01;7.10;;;1.98;;
49296;SDS011;35163;48.878;18.040;2022-09-16T08:38:30;5.95;;;1.60;;
49296;SDS011;35163;48.878;18.040;2022-09-16T08:41:00;8.77;;;2.17;;
49296;SDS011;35163;48.878;18.040;2022-09-16T08:46:33;4.47;;;1.30;;
49296;SDS011;35163;48.878;18.040;2022-09-16T08:49:09;5.05;;;2.03;;
49296;SDS011;35163;48.878;18.040;2022-09-16T08:51:43;5.95;;;2.10;;
49296;SDS011;35163;48.878;18.040;2022-09-16T08:54:12;7.63;;;2.10;;
49296;SDS011;35163;48.878;18.040;2022-09-16T08:56:48;8.02;;;1.85;;
49296;SDS011;35163;48.878;18.040;2022-09-16T08:59:17;4.82;;;1.85;;
49296;SDS011;35163;48.878;18.040;2022-09-16T09:01:58;4.88;;;2.17;;
49296;SDS011;35163;48.878;18.040;2022-09-16T09:04:34;7.80;;;1.77;;
49296;SDS011;35163;48.878;18.040;2022-09-16T09:07:04;6.57;;;2.38;;
49296;SDS011;35163;48.878;18.040;2022-09-16T09:12:31;5.78;;;1.83;;
49296;SDS011;35163;48.878;18.040;2022-09-16T09:18:02;6.32;;;2.60;;
49296;SDS011;35163;48.878;18.040;2022-09-16T09:26:41;5.18;;;1.80;;
49296;SDS011;35163;48.878;18.040;2022-09-16T09:34:51;4.35;;;1.73;;
49296;SDS011;35163;48.878;18.040;2022-09-16T09:37:36;5.18;;;1.50;;
49296;SDS011;35163;48.878;18.040;2022-09-16T09:40:30;4.40;;;1.35;;
49296;SDS011;35163;48.878;18.040;2022-09-16T09:43:15;3.80;;;1.45;;
49296;SDS011;35163;48.878;18.040;2022-09-16T09:49:06;7.50;;;1.40;;
49296;SDS011;35163;48.878;18.040;2022-09-16T09:51:41;4.30;;;1.15;;
49296;SDS011;35163;48.878;18.040;2022-09-16T09:54:30;3.00;;;1.40;;
49296;SDS011;35163;48.878;18.040;2022-09-16T09:57:01;8.00;;;2.15;;
49296;SDS011;35163;48.878;18.040;2022-09-16T10:02:13;3.97;;;1.50;;
49296;SDS011;35163;48.878;18.040;2022-09-16T10:04:44;8.50;;;1.55;;
49296;SDS011;35163;48.878;18.040;2022-09-16T10:07:12;7.85;;;1.90;;
49296;SDS011;35163;48.878;18.040;2022-09-16T10:12:32;4.05;;;1.50;;
49296;SDS011;35163;48.878;18.040;2022-09-16T10:15:00;5.20;;;1.27;;
49296;SDS011;35163;48.878;18.040;2022-09-16T10:17:28;4.40;;;1.50;;
49296;SDS011;35163;48.878;18.040;2022-09-16T10:19:58;5.28;;;1.58;;
49296;SDS011;35163;48.878;18.040;2022-09-16T10:22:28;8.40;;;1.95;;
49296;SDS011;35163;48.878;18.040;2022-09-16T10:25:00;27.90;;;4.22;;
49296;SDS011;35163;48.878;18.040;2022-09-16T10:27:32;4.75;;;1.40;;
49296;SDS011;35163;48.878;18.040;2022-09-16T10:30:14;5.95;;;1.80;;
49296;SDS011;35163;48.878;18.040;2022-09-16T10:32:48;4.18;;;1.63;;
49296;SDS011;35163;48.878;18.040;2022-09-16T10:35:16;8.35;;;2.05;;
49296;SDS011;35163;48.878;18.040;2022-09-16T10:37:48;4.10;;;1.48;;
49296;SDS011;35163;48.878;18.040;2022-09-16T10:40:18;7.45;;;1.73;;
49296;SDS011;35163;48.878;18.040;2022-09-16T10:42:45;3.83;;;1.75;;
49296;SDS011;35163;48.878;18.040;2022-09-16T10:45:14;5.53;;;1.50;;
49296;SDS011;35163;48.878;18.040;2022-09-16T10:47:48;6.82;;;1.80;;
49296;SDS011;35163;48.878;18.040;2022-09-16T10:50:18;3.10;;;1.63;;
49296;SDS011;35163;48.878;18.040;2022-09-16T10:52:46;6.82;;;1.98;;
49296;SDS011;35163;48.878;18.040;2022-09-16T10:55:24;3.85;;;1.70;;
49296;SDS011;35163;48.878;18.040;2022-09-16T10:58:04;3.58;;;1.70;;
49296;SDS011;35163;48.878;18.040;2022-09-16T11:00:42;5.18;;;1.60;;
49296;SDS011;35163;48.878;18.040;2022-09-16T11:23:11;5.07;;;1.83;;
49296;SDS011;35163;48.878;18.040;2022-09-16T11:28:42;3.65;;;1.70;;
49296;SDS011;35163;48.878;18.040;2022-09-16T11:37:11;8.65;;;2.00;;
49296;SDS011;35163;48.878;18.040;2022-09-16T11:39:44;5.68;;;1.75;;
49296;SDS011;35163;48.878;18.040;2022-09-16T11:42:21;5.63;;;2.10;;
49296;SDS011;35163;48.878;18.040;2022-09-16T11:50:46;4.82;;;2.00;;
49296;SDS011;35163;48.878;18.040;2022-09-16T11:56:08;3.40;;;1.77;;
49296;SDS011;35163;48.878;18.040;2022-09-16T11:58:52;5.35;;;1.90;;
49296;SDS011;35163;48.878;18.040;2022-09-16T12:01:42;5.78;;;2.28;;
49296;SDS011;35163;48.878;18.040;2022-09-16T12:04:47;6.30;;;2.47;;
49296;SDS011;35163;48.878;18.040;2022-09-16T12:09:58;7.20;;;2.33;;
49296;SDS011;35163;48.878;18.040;2022-09-16T12:15:48;5.55;;;2.03;;
49296;SDS011;35163;48.878;18.040;2022-09-16T12:18:20;7.43;;;1.83;;
49296;SDS011;35163;48.878;18.040;2022-09-16T12:21:06;6.38;;;2.05;;
49296;SDS011;35163;48.878;18.040;2022-09-16T12:23:40;15.90;;;3.10;;
49296;SDS011;35163;48.878;18.040;2022-09-16T12:26:32;7.78;;;2.50;;
49296;SDS011;35163;48.878;18.040;2022-09-16T12:29:13;8.25;;;2.45;;
49296;SDS011;35163;48.878;18.040;2022-09-16T12:31:52;4.25;;;2.08;;
49296;SDS011;35163;48.878;18.040;2022-09-16T12:34:31;7.25;;;2.10;;
49296;SDS011;35163;48.878;18.040;2022-09-16T12:37:23;5.50;;;2.50;;
49296;SDS011;35163;48.878;18.040;2022-09-16T12:40:04;7.82;;;2.28;;
49296;SDS011;35163;48.878;18.040;2022-09-16T12:51:18;6.50;;;2.50;;
49296;SDS011;35163;48.878;18.040;2022-09-16T12:54:08;4.15;;;1.90;;
49296;SDS011;35163;48.878;18.040;2022-09-16T13:02:50;7.53;;;2.80;;
49296;SDS011;35163;48.878;18.040;2022-09-16T13:05:42;8.93;;;2.00;;
49296;SDS011;35163;48.878;18.040;2022-09-16T13:08:18;4.00;;;2.17;;
49296;SDS011;35163;48.878;18.040;2022-09-16T13:11:06;10.07;;;2.45;;
49296;SDS011;35163;48.878;18.040;2022-09-16T13:16:32;6.30;;;2.17;;
49296;SDS011;35163;48.878;18.040;2022-09-16T13:19:23;7.90;;;2.15;;
49296;SDS011;35163;48.878;18.040;2022-09-16T13:21:47;3.97;;;1.85;;
49296;SDS011;35163;48.878;18.040;2022-09-16T13:24:24;5.05;;;1.92;;
49296;SDS011;35163;48.878;18.040;2022-09-16T13:27:17;7.63;;;1.92;;
49296;SDS011;35163;48.878;18.040;2022-09-16T13:29:50;5.25;;;1.83;;
49296;SDS011;35163;48.878;18.040;2022-09-16T13:32:23;7.35;;;1.98;;
49296;SDS011;35163;48.878;18.040;2022-09-16T13:37:44;4.60;;;1.85;;
49296;SDS011;35163;48.878;18.040;2022-09-16T13:40:22;6.70;;;2.03;;
49296;SDS011;35163;48.878;18.040;2022-09-16T13:48:28;6.97;;;2.35;;
49296;SDS011;35163;48.878;18.040;2022-09-16T13:51:19;3.63;;;2.10;;
49296;SDS011;35163;48.878;18.040;2022-09-16T13:53:49;9.52;;;2.50;;
49296;SDS011;35163;48.878;18.040;2022-09-16T14:08:37;4.10;;;2.03;;
49296;SDS011;35163;48.878;18.040;2022-09-16T14:11:34;7.32;;;2.00;;
49296;SDS011;35163;48.878;18.040;2022-09-16T14:14:15;9.20;;;3.70;;
49296;SDS011;35163;48.878;18.040;2022-09-16T14:17:11;7.95;;;2.47;;
49296;SDS011;35163;48.878;18.040;2022-09-16T14:19:48;6.97;;;2.00;;
49296;SDS011;35163;48.878;18.040;2022-09-16T14:22:22;4.57;;;1.67;;
49296;SDS011;35163;48.878;18.040;2022-09-16T14:24:52;6.03;;;2.10;;
49296;SDS011;35163;48.878;18.040;2022-09-16T14:27:33;3.53;;;1.77;;
49296;SDS011;35163;48.878;18.040;2022-09-16T14:30:17;4.38;;;1.80;;
49296;SDS011;35163;48.878;18.040;2022-09-16T14:32:45;4.25;;;1.67;;
49296;SDS011;35163;48.878;18.040;2022-09-16T14:35:20;4.35;;;1.77;;
49296;SDS011;35163;48.878;18.040;2022-09-16T14:37:50;4.10;;;1.90;;
49296;SDS011;35163;48.878;18.040;2022-09-16T14:40:21;5.90;;;2.42;;
49296;SDS011;35163;48.878;18.040;2022-09-16T14:42:51;4.30;;;2.40;;
49296;SDS011;35163;48.878;18.040;2022-09-16T14:45:20;6.15;;;2.38;;
49296;SDS011;35163;48.878;18.040;2022-09-16T14:47:48;7.55;;;2.28;;
49296;SDS011;35163;48.878;18.040;2022-09-16T14:50:22;3.95;;;2.05;;
49296;SDS011;35163;48.878;18.040;2022-09-16T14:52:56;5.45;;;2.38;;
49296;SDS011;35163;48.878;18.040;2022-09-16T14:55:26;3.42;;;1.65;;
49296;SDS011;35163;48.878;18.040;2022-09-16T14:57:55;7.75;;;2.30;;
49296;SDS011;35163;48.878;18.040;2022-09-16T15:00:40;5.60;;;2.70;;
49296;SDS011;35163;48.878;18.040;2022-09-16T15:05:49;9.52;;;4.05;;
49296;SDS011;35163;48.878;18.040;2022-09-16T15:10:59;10.05;;;3.15;;
49296;SDS011;35163;48.878;18.040;2022-09-16T15:13:36;4.03;;;2.05;;
49296;SDS011;35163;48.878;18.040;2022-09-16T15:16:14;5.63;;;2.42;;
49296;SDS011;35163;48.878;18.040;2022-09-16T15:18:55;10.23;;;3.60;;
49296;SDS011;35163;48.878;18.040;2022-09-16T15:21:26;4.93;;;2.47;;
49296;SDS011;35163;48.878;18.040;2022-09-16T15:24:00;10.77;;;2.53;;
49296;SDS011;35163;48.878;18.040;2022-09-16T15:26:29;12.55;;;2.35;;
49296;SDS011;35163;48.878;18.040;2022-09-16T15:29:12;4.80;;;2.58;;
49296;SDS011;35163;48.878;18.040;2022-09-16T15:31:52;7.20;;;2.53;;
49296;SDS011;35163;48.878;18.040;2022-09-16T15:34:21;9.38;;;2.47;;
49296;SDS011;35163;48.878;18.040;2022-09-16T15:39:28;30.42;;;16.48;;
49296;SDS011;35163;48.878;18.040;2022-09-16T15:44:42;9.23;;;3.40;;
49296;SDS011;35163;48.878;18.040;2022-09-16T15:47:24;5.40;;;2.63;;
49296;SDS011;35163;48.878;18.040;2022-09-16T15:49:56;5.57;;;2.67;;
49296;SDS011;35163;48.878;18.040;2022-09-16T15:52:38;5.30;;;2.35;;
49296;SDS011;35163;48.878;18.040;2022-09-16T16:00:59;4.50;;;1.98;;
49296;SDS011;35163;48.878;18.040;2022-09-16T16:03:29;5.05;;;2.25;;
49296;SDS011;35163;48.878;18.040;2022-09-16T16:06:01;3.88;;;1.92;;
49296;SDS011;35163;48.878;18.040;2022-09-16T16:08:39;7.70;;;2.45;;
49296;SDS011;35163;48.878;18.040;2022-09-16T16:11:28;5.65;;;2.35;;
49296;SDS011;35163;48.878;18.040;2022-09-16T16:13:56;4.45;;;2.40;;
49296;SDS011;35163;48.878;18.040;2022-09-16T16:16:27;4.97;;;2.42;;
49296;SDS011;35163;48.878;18.040;2022-09-16T16:18:53;8.20;;;2.60;;
49296;SDS011;35163;48.878;18.040;2022-09-16T16:21:20;6.50;;;2.40;;
49296;SDS011;35163;48.878;18.040;2022-09-16T16:23:47;14.10;;;2.67;;
49296;SDS011;35163;48.878;18.040;2022-09-16T16:26:13;13.85;;;3.70;;
49296;SDS011;35163;48.878;18.040;2022-09-16T16:28:40;5.95;;;2.90;;
49296;SDS011;35163;48.878;18.040;2022-09-16T16:31:14;5.97;;;2.90;;
49296;SDS011;35163;48.878;18.040;2022-09-16T16:33:46;7.22;;;2.50;;
49296;SDS011;35163;48.878;18.040;2022-09-16T16:36:14;6.03;;;2.50;;
49296;SDS011;35163;48.878;18.040;2022-09-16T16:38:43;7.78;;;2.92;;
49296;SDS011;35163;48.878;18.040;2022-09-16T16:41:11;6.43;;;3.22;;
49296;SDS011;35163;48.878;18.040;2022-09-16T16:43:39;9.40;;;3.67;;
49296;SDS011;35163;48.878;18.040;2022-09-16T16:46:06;9.52;;;3.33;;
49296;SDS011;35163;48.878;18.040;2022-09-16T16:48:32;8.82;;;3.28;;
49296;SDS011;35163;48.878;18.040;2022-09-16T16:51:00;7.47;;;2.78;;
49296;SDS011;35163;48.878;18.040;2022-09-16T16:53:29;8.55;;;2.63;;
49296;SDS011;35163;48.878;18.040;2022-09-16T16:56:06;6.20;;;2.67;;
49296;SDS011;35163;48.878;18.040;2022-09-16T16:58:40;9.60;;;3.50;;
49296;SDS011;35163;48.878;18.040;2022-09-16T17:01:12;5.90;;;2.83;;
49296;SDS011;35163;48.878;18.040;2022-09-16T17:03:42;7.57;;;3.22;;
49296;SDS011;35163;48.878;18.040;2022-09-16T17:06:11;7.55;;;2.92;;
49296;SDS011;35163;48.878;18.040;2022-09-16T17:08:38;6.68;;;3.45;;
49296;SDS011;35163;48.878;18.040;2022-09-16T17:13:42;12.70;;;3.75;;
49296;SDS011;35163;48.878;18.040;2022-09-16T17:16:11;9.15;;;3.70;;
49296;SDS011;35163;48.878;18.040;2022-09-16T17:18:40;7.40;;;3.40;;
49296;SDS011;35163;48.878;18.040;2022-09-16T17:21:08;9.25;;;4.05;;
49296;SDS011;35163;48.878;18.040;2022-09-16T17:23:35;7.25;;;3.45;;
49296;SDS011;35163;48.878;18.040;2022-09-16T17:26:03;8.88;;;4.07;;
49296;SDS011;35163;48.878;18.040;2022-09-16T17:28:31;9.02;;;4.07;;
49296;SDS011;35163;48.878;18.040;2022-09-16T17:30:58;9.73;;;4.20;;
49296;SDS011;35163;48.878;18.040;2022-09-16T17:33:24;8.43;;;4.50;;
49296;SDS011;35163;48.878;18.040;2022-09-16T17:36:04;8.25;;;4.10;;
49296;SDS011;35163;48.878;18.040;2022-09-16T17:38:33;9.30;;;4.40;;
49296;SDS011;35163;48.878;18.040;2022-09-16T17:41:01;12.02;;;4.78;;
49296;SDS011;35163;48.878;18.040;2022-09-16T17:43:32;7.88;;;4.03;;
49296;SDS011;35163;48.878;18.040;2022-09-16T17:46:00;8.10;;;5.00;;
49296;SDS011;35163;48.878;18.040;2022-09-16T17:48:29;15.80;;;8.43;;
49296;SDS011;35163;48.878;18.040;2022-09-16T17:50:56;19.27;;;11.63;;
49296;SDS011;35163;48.878;18.040;2022-09-16T17:53:23;13.40;;;6.00;;
49296;SDS011;35163;48.878;18.040;2022-09-16T17:55:50;12.20;;;5.00;;